Terminal Aerodrome Forecast
Issued by NWS Omaha/Valley, NE

Home | Current Version | Previous Version | Text Only | Print | Product List | Glossary On
Versions: 1 2 3 4 5 6 7 8 9 10 11 12 13
000
FTUS43 KOAX 292333
TAFOMA
TAF
KOMA 292333Z 3000/3024 06006KT P6SM SCT050
     FM300900 02003KT 4SM BR SCT250
      TEMPO 3011/3013 1SM BR
     FM301500 09006KT P6SM SCT050=

USA.gov is the U.S. government's official web portal to all federal, state and local government web resources and services.